sensor_id;sensor_type;location;lat;lon;timestamp;P1;durP1;ratioP1;P2;durP2;ratioP2
66487;SDS011;53304;54.550;18.526;2023-03-31T00:01:56;3.13;;;1.45;;
66487;SDS011;53304;54.550;18.526;2023-03-31T00:04:22;3.22;;;1.70;;
66487;SDS011;53304;54.550;18.526;2023-03-31T00:06:50;2.85;;;1.55;;
66487;SDS011;53304;54.550;18.526;2023-03-31T00:09:18;3.22;;;1.60;;
66487;SDS011;53304;54.550;18.526;2023-03-31T00:11:49;3.85;;;1.55;;
66487;SDS011;53304;54.550;18.526;2023-03-31T00:14:16;3.50;;;1.50;;
66487;SDS011;53304;54.550;18.526;2023-03-31T00:16:43;3.33;;;1.70;;
66487;SDS011;53304;54.550;18.526;2023-03-31T00:19:09;3.08;;;1.50;;
66487;SDS011;53304;54.550;18.526;2023-03-31T00:21:44;2.38;;;1.40;;
66487;SDS011;53304;54.550;18.526;2023-03-31T00:24:14;3.95;;;1.40;;
66487;SDS011;53304;54.550;18.526;2023-03-31T00:26:42;4.05;;;1.60;;
66487;SDS011;53304;54.550;18.526;2023-03-31T00:29:08;2.67;;;1.50;;
66487;SDS011;53304;54.550;18.526;2023-03-31T00:31:39;4.30;;;1.60;;
66487;SDS011;53304;54.550;18.526;2023-03-31T00:34:05;2.80;;;1.38;;
66487;SDS011;53304;54.550;18.526;2023-03-31T00:36:30;3.40;;;1.65;;
66487;SDS011;53304;54.550;18.526;2023-03-31T00:38:59;3.30;;;1.45;;
66487;SDS011;53304;54.550;18.526;2023-03-31T00:41:35;2.63;;;1.35;;
66487;SDS011;53304;54.550;18.526;2023-03-31T00:44:09;2.55;;;1.80;;
66487;SDS011;53304;54.550;18.526;2023-03-31T00:46:42;4.47;;;1.60;;
66487;SDS011;53304;54.550;18.526;2023-03-31T00:49:30;3.13;;;1.48;;
66487;SDS011;53304;54.550;18.526;2023-03-31T00:52:01;2.90;;;1.50;;
66487;SDS011;53304;54.550;18.526;2023-03-31T00:54:32;3.60;;;1.40;;
66487;SDS011;53304;54.550;18.526;2023-03-31T00:57:02;3.95;;;1.52;;
66487;SDS011;53304;54.550;18.526;2023-03-31T00:59:31;3.30;;;1.50;;
66487;SDS011;53304;54.550;18.526;2023-03-31T01:02:19;2.80;;;1.40;;
66487;SDS011;53304;54.550;18.526;2023-03-31T01:04:45;2.58;;;1.25;;
66487;SDS011;53304;54.550;18.526;2023-03-31T01:10:18;1.75;;;1.30;;
66487;SDS011;53304;54.550;18.526;2023-03-31T01:12:50;2.10;;;1.23;;
66487;SDS011;53304;54.550;18.526;2023-03-31T01:15:19;2.25;;;1.27;;
66487;SDS011;53304;54.550;18.526;2023-03-31T01:17:47;3.72;;;1.20;;
66487;SDS011;53304;54.550;18.526;2023-03-31T01:40:05;3.13;;;1.20;;
66487;SDS011;53304;54.550;18.526;2023-03-31T01:42:19;2.88;;;1.30;;
66487;SDS011;53304;54.550;18.526;2023-03-31T01:44:59;2.35;;;1.10;;
66487;SDS011;53304;54.550;18.526;2023-03-31T01:47:32;2.05;;;1.05;;
66487;SDS011;53304;54.550;18.526;2023-03-31T01:50:10;1.88;;;1.10;;
66487;SDS011;53304;54.550;18.526;2023-03-31T01:53:03;1.98;;;1.10;;
66487;SDS011;53304;54.550;18.526;2023-03-31T01:55:38;2.78;;;1.10;;
66487;SDS011;53304;54.550;18.526;2023-03-31T02:00:54;2.42;;;1.05;;
66487;SDS011;53304;54.550;18.526;2023-03-31T02:03:27;3.08;;;1.27;;
66487;SDS011;53304;54.550;18.526;2023-03-31T02:05:58;2.25;;;1.08;;
66487;SDS011;53304;54.550;18.526;2023-03-31T02:08:31;2.17;;;1.08;;
66487;SDS011;53304;54.550;18.526;2023-03-31T02:11:03;2.88;;;1.15;;
66487;SDS011;53304;54.550;18.526;2023-03-31T02:13:30;1.95;;;1.10;;
66487;SDS011;53304;54.550;18.526;2023-03-31T02:15:59;2.30;;;1.00;;
66487;SDS011;53304;54.550;18.526;2023-03-31T02:18:31;3.22;;;1.30;;
66487;SDS011;53304;54.550;18.526;2023-03-31T02:21:02;3.22;;;1.10;;
66487;SDS011;53304;54.550;18.526;2023-03-31T02:23:32;2.60;;;0.93;;
66487;SDS011;53304;54.550;18.526;2023-03-31T02:26:09;2.17;;;1.10;;
66487;SDS011;53304;54.550;18.526;2023-03-31T02:28:40;1.73;;;1.00;;
66487;SDS011;53304;54.550;18.526;2023-03-31T02:33:36;2.40;;;1.10;;
66487;SDS011;53304;54.550;18.526;2023-03-31T02:36:04;3.10;;;1.13;;
66487;SDS011;53304;54.550;18.526;2023-03-31T02:38:33;3.03;;;1.10;;
66487;SDS011;53304;54.550;18.526;2023-03-31T02:41:05;3.28;;;1.08;;
66487;SDS011;53304;54.550;18.526;2023-03-31T02:43:30;2.40;;;1.08;;
66487;SDS011;53304;54.550;18.526;2023-03-31T02:45:58;1.20;;;0.90;;
66487;SDS011;53304;54.550;18.526;2023-03-31T02:48:25;2.40;;;1.00;;
66487;SDS011;53304;54.550;18.526;2023-03-31T02:51:00;1.35;;;0.93;;
66487;SDS011;53304;54.550;18.526;2023-03-31T02:53:38;1.98;;;1.00;;
66487;SDS011;53304;54.550;18.526;2023-03-31T03:06:54;2.03;;;1.00;;
66487;SDS011;53304;54.550;18.526;2023-03-31T03:14:51;1.33;;;0.80;;
66487;SDS011;53304;54.550;18.526;2023-03-31T03:17:20;4.18;;;1.08;;
66487;SDS011;53304;54.550;18.526;2023-03-31T03:19:56;2.10;;;0.93;;
66487;SDS011;53304;54.550;18.526;2023-03-31T03:22:24;1.10;;;0.75;;
66487;SDS011;53304;54.550;18.526;2023-03-31T03:24:50;1.92;;;0.80;;
66487;SDS011;53304;54.550;18.526;2023-03-31T03:27:16;3.38;;;0.90;;
66487;SDS011;53304;54.550;18.526;2023-03-31T03:29:42;2.38;;;1.00;;
66487;SDS011;53304;54.550;18.526;2023-03-31T03:32:09;2.08;;;1.00;;
66487;SDS011;53304;54.550;18.526;2023-03-31T03:34:40;3.13;;;0.90;;
66487;SDS011;53304;54.550;18.526;2023-03-31T03:37:05;2.20;;;0.80;;
66487;SDS011;53304;54.550;18.526;2023-03-31T03:39:35;1.55;;;0.82;;
66487;SDS011;53304;54.550;18.526;2023-03-31T03:42:01;1.00;;;0.90;;
66487;SDS011;53304;54.550;18.526;2023-03-31T03:44:29;1.15;;;0.90;;
66487;SDS011;53304;54.550;18.526;2023-03-31T03:46:55;1.42;;;0.80;;
66487;SDS011;53304;54.550;18.526;2023-03-31T03:49:23;2.72;;;1.00;;
66487;SDS011;53304;54.550;18.526;2023-03-31T03:51:48;2.75;;;0.93;;
66487;SDS011;53304;54.550;18.526;2023-03-31T03:54:16;1.90;;;0.90;;
66487;SDS011;53304;54.550;18.526;2023-03-31T03:56:42;1.38;;;0.80;;
66487;SDS011;53304;54.550;18.526;2023-03-31T03:59:10;1.35;;;0.73;;
66487;SDS011;53304;54.550;18.526;2023-03-31T04:01:42;1.70;;;0.80;;
66487;SDS011;53304;54.550;18.526;2023-03-31T04:04:10;2.22;;;0.93;;
66487;SDS011;53304;54.550;18.526;2023-03-31T04:06:38;3.17;;;0.90;;
66487;SDS011;53304;54.550;18.526;2023-03-31T04:09:04;1.60;;;0.70;;
66487;SDS011;53304;54.550;18.526;2023-03-31T04:11:31;1.85;;;1.00;;
66487;SDS011;53304;54.550;18.526;2023-03-31T04:13:57;3.75;;;1.02;;
66487;SDS011;53304;54.550;18.526;2023-03-31T04:16:23;2.22;;;1.20;;
66487;SDS011;53304;54.550;18.526;2023-03-31T04:18:53;2.15;;;0.90;;
66487;SDS011;53304;54.550;18.526;2023-03-31T04:21:24;2.75;;;1.08;;
66487;SDS011;53304;54.550;18.526;2023-03-31T04:23:53;1.33;;;0.73;;
66487;SDS011;53304;54.550;18.526;2023-03-31T04:26:28;3.03;;;1.00;;
66487;SDS011;53304;54.550;18.526;2023-03-31T04:29:07;2.90;;;1.00;;
66487;SDS011;53304;54.550;18.526;2023-03-31T04:31:36;1.45;;;0.70;;
66487;SDS011;53304;54.550;18.526;2023-03-31T04:34:03;1.92;;;0.95;;
66487;SDS011;53304;54.550;18.526;2023-03-31T04:36:37;2.72;;;0.88;;
66487;SDS011;53304;54.550;18.526;2023-03-31T04:39:06;0.77;;;0.60;;
66487;SDS011;53304;54.550;18.526;2023-03-31T04:41:37;1.60;;;0.80;;
66487;SDS011;53304;54.550;18.526;2023-03-31T04:44:03;1.77;;;0.90;;
66487;SDS011;53304;54.550;18.526;2023-03-31T04:46:28;0.93;;;0.60;;
66487;SDS011;53304;54.550;18.526;2023-03-31T04:48:56;2.03;;;0.73;;
66487;SDS011;53304;54.550;18.526;2023-03-31T04:51:23;1.70;;;0.90;;
66487;SDS011;53304;54.550;18.526;2023-03-31T04:53:55;3.28;;;0.68;;
66487;SDS011;53304;54.550;18.526;2023-03-31T04:56:23;3.40;;;0.75;;
66487;SDS011;53304;54.550;18.526;2023-03-31T04:58:51;3.28;;;0.90;;
66487;SDS011;53304;54.550;18.526;2023-03-31T05:01:19;2.78;;;0.77;;
66487;SDS011;53304;54.550;18.526;2023-03-31T05:03:45;1.92;;;0.80;;
66487;SDS011;53304;54.550;18.526;2023-03-31T05:06:14;2.58;;;0.80;;
66487;SDS011;53304;54.550;18.526;2023-03-31T05:08:40;4.68;;;1.00;;
66487;SDS011;53304;54.550;18.526;2023-03-31T05:11:08;2.72;;;0.77;;
66487;SDS011;53304;54.550;18.526;2023-03-31T05:13:34;1.83;;;0.70;;
66487;SDS011;53304;54.550;18.526;2023-03-31T05:16:07;5.45;;;0.80;;
66487;SDS011;53304;54.550;18.526;2023-03-31T05:18:34;2.35;;;0.80;;
66487;SDS011;53304;54.550;18.526;2023-03-31T05:21:13;0.90;;;0.60;;
66487;SDS011;53304;54.550;18.526;2023-03-31T05:23:41;6.53;;;1.08;;
66487;SDS011;53304;54.550;18.526;2023-03-31T05:26:11;6.38;;;1.08;;
66487;SDS011;53304;54.550;18.526;2023-03-31T05:28:38;5.70;;;1.23;;
66487;SDS011;53304;54.550;18.526;2023-03-31T05:31:04;3.17;;;1.08;;
66487;SDS011;53304;54.550;18.526;2023-03-31T05:33:33;6.30;;;1.40;;
66487;SDS011;53304;54.550;18.526;2023-03-31T05:36:04;1.98;;;0.68;;
66487;SDS011;53304;54.550;18.526;2023-03-31T05:38:32;3.97;;;1.20;;
66487;SDS011;53304;54.550;18.526;2023-03-31T05:41:00;5.78;;;0.90;;
66487;SDS011;53304;54.550;18.526;2023-03-31T05:43:25;5.20;;;0.90;;
66487;SDS011;53304;54.550;18.526;2023-03-31T05:45:53;3.50;;;1.13;;
66487;SDS011;53304;54.550;18.526;2023-03-31T05:48:21;2.28;;;1.08;;
66487;SDS011;53304;54.550;18.526;2023-03-31T05:50:47;2.97;;;0.98;;
66487;SDS011;53304;54.550;18.526;2023-03-31T05:53:12;9.90;;;1.17;;
66487;SDS011;53304;54.550;18.526;2023-03-31T05:55:40;5.28;;;1.10;;
66487;SDS011;53304;54.550;18.526;2023-03-31T05:58:08;9.10;;;1.67;;
66487;SDS011;53304;54.550;18.526;2023-03-31T06:00:36;18.25;;;2.42;;
66487;SDS011;53304;54.550;18.526;2023-03-31T06:03:02;19.80;;;2.55;;
66487;SDS011;53304;54.550;18.526;2023-03-31T06:05:31;24.20;;;2.67;;
66487;SDS011;53304;54.550;18.526;2023-03-31T06:08:01;12.93;;;2.40;;
66487;SDS011;53304;54.550;18.526;2023-03-31T06:10:28;10.63;;;2.60;;
66487;SDS011;53304;54.550;18.526;2023-03-31T06:12:56;11.30;;;2.38;;
66487;SDS011;53304;54.550;18.526;2023-03-31T06:15:24;11.40;;;2.13;;
66487;SDS011;53304;54.550;18.526;2023-03-31T06:17:52;10.57;;;2.05;;
66487;SDS011;53304;54.550;18.526;2023-03-31T06:20:20;7.40;;;2.00;;
66487;SDS011;53304;54.550;18.526;2023-03-31T06:22:50;7.68;;;2.10;;
66487;SDS011;53304;54.550;18.526;2023-03-31T06:25:18;8.00;;;1.80;;
66487;SDS011;53304;54.550;18.526;2023-03-31T06:27:46;8.50;;;2.00;;
66487;SDS011;53304;54.550;18.526;2023-03-31T06:30:12;6.78;;;2.00;;
66487;SDS011;53304;54.550;18.526;2023-03-31T06:32:37;8.57;;;2.08;;
66487;SDS011;53304;54.550;18.526;2023-03-31T06:35:03;8.38;;;2.00;;
66487;SDS011;53304;54.550;18.526;2023-03-31T06:37:28;6.63;;;2.03;;
66487;SDS011;53304;54.550;18.526;2023-03-31T06:39:54;6.03;;;2.35;;
66487;SDS011;53304;54.550;18.526;2023-03-31T06:42:19;7.18;;;2.10;;
66487;SDS011;53304;54.550;18.526;2023-03-31T06:44:47;10.05;;;2.30;;
66487;SDS011;53304;54.550;18.526;2023-03-31T06:47:15;4.97;;;1.90;;
66487;SDS011;53304;54.550;18.526;2023-03-31T06:49:40;7.18;;;2.10;;
66487;SDS011;53304;54.550;18.526;2023-03-31T06:52:08;7.03;;;1.90;;
66487;SDS011;53304;54.550;18.526;2023-03-31T06:54:36;7.28;;;1.92;;
66487;SDS011;53304;54.550;18.526;2023-03-31T06:57:06;4.80;;;1.70;;
66487;SDS011;53304;54.550;18.526;2023-03-31T06:59:31;6.20;;;1.77;;
66487;SDS011;53304;54.550;18.526;2023-03-31T07:01:57;4.28;;;1.48;;
66487;SDS011;53304;54.550;18.526;2023-03-31T07:04:22;6.15;;;1.98;;
66487;SDS011;53304;54.550;18.526;2023-03-31T07:06:50;4.68;;;1.73;;
66487;SDS011;53304;54.550;18.526;2023-03-31T07:09:18;3.83;;;1.85;;
66487;SDS011;53304;54.550;18.526;2023-03-31T07:11:47;3.35;;;1.63;;
66487;SDS011;53304;54.550;18.526;2023-03-31T07:14:15;8.45;;;1.80;;
66487;SDS011;53304;54.550;18.526;2023-03-31T07:16:42;5.78;;;1.88;;
66487;SDS011;53304;54.550;18.526;2023-03-31T07:19:12;7.68;;;2.03;;
66487;SDS011;53304;54.550;18.526;2023-03-31T07:21:39;3.70;;;1.58;;
66487;SDS011;53304;54.550;18.526;2023-03-31T07:24:07;5.53;;;1.70;;
66487;SDS011;53304;54.550;18.526;2023-03-31T07:26:34;6.82;;;1.90;;
66487;SDS011;53304;54.550;18.526;2023-03-31T07:29:03;6.88;;;1.65;;
66487;SDS011;53304;54.550;18.526;2023-03-31T07:31:31;4.47;;;1.80;;
66487;SDS011;53304;54.550;18.526;2023-03-31T07:33:57;4.72;;;1.60;;
66487;SDS011;53304;54.550;18.526;2023-03-31T07:36:25;5.43;;;1.60;;
66487;SDS011;53304;54.550;18.526;2023-03-31T07:38:50;10.75;;;2.40;;
66487;SDS011;53304;54.550;18.526;2023-03-31T07:41:16;9.93;;;2.20;;
66487;SDS011;53304;54.550;18.526;2023-03-31T07:43:43;13.60;;;2.85;;
66487;SDS011;53304;54.550;18.526;2023-03-31T07:46:17;9.82;;;2.38;;
66487;SDS011;53304;54.550;18.526;2023-03-31T07:48:46;8.88;;;2.50;;
66487;SDS011;53304;54.550;18.526;2023-03-31T07:51:15;6.82;;;2.03;;
66487;SDS011;53304;54.550;18.526;2023-03-31T07:53:44;11.57;;;2.72;;
66487;SDS011;53304;54.550;18.526;2023-03-31T07:56:13;6.25;;;2.15;;
66487;SDS011;53304;54.550;18.526;2023-03-31T07:58:39;5.25;;;2.10;;
66487;SDS011;53304;54.550;18.526;2023-03-31T08:01:04;4.82;;;2.13;;
66487;SDS011;53304;54.550;18.526;2023-03-31T08:03:32;6.70;;;2.10;;
66487;SDS011;53304;54.550;18.526;2023-03-31T08:06:00;5.85;;;2.40;;
66487;SDS011;53304;54.550;18.526;2023-03-31T08:08:28;5.07;;;2.28;;
66487;SDS011;53304;54.550;18.526;2023-03-31T08:10:53;8.07;;;2.10;;
66487;SDS011;53304;54.550;18.526;2023-03-31T08:13:18;7.40;;;2.30;;
66487;SDS011;53304;54.550;18.526;2023-03-31T08:15:46;6.10;;;2.25;;
66487;SDS011;53304;54.550;18.526;2023-03-31T08:18:12;5.22;;;1.95;;
66487;SDS011;53304;54.550;18.526;2023-03-31T08:20:40;3.78;;;1.75;;
66487;SDS011;53304;54.550;18.526;2023-03-31T08:23:08;10.10;;;2.28;;
66487;SDS011;53304;54.550;18.526;2023-03-31T08:25:35;6.53;;;2.10;;
66487;SDS011;53304;54.550;18.526;2023-03-31T08:28:02;6.35;;;2.03;;
66487;SDS011;53304;54.550;18.526;2023-03-31T08:30:33;4.35;;;1.70;;
66487;SDS011;53304;54.550;18.526;2023-03-31T08:32:58;5.45;;;2.00;;
66487;SDS011;53304;54.550;18.526;2023-03-31T08:35:24;4.22;;;1.80;;
66487;SDS011;53304;54.550;18.526;2023-03-31T08:37:49;4.70;;;1.75;;
66487;SDS011;53304;54.550;18.526;2023-03-31T08:40:19;6.00;;;2.08;;
66487;SDS011;53304;54.550;18.526;2023-03-31T08:42:50;3.43;;;1.63;;
66487;SDS011;53304;54.550;18.526;2023-03-31T08:45:23;4.25;;;2.00;;
66487;SDS011;53304;54.550;18.526;2023-03-31T08:51:23;6.20;;;1.90;;
66487;SDS011;53304;54.550;18.526;2023-03-31T08:56:35;5.50;;;2.00;;
66487;SDS011;53304;54.550;18.526;2023-03-31T08:59:04;4.22;;;1.80;;
66487;SDS011;53304;54.550;18.526;2023-03-31T09:01:40;3.78;;;1.70;;
66487;SDS011;53304;54.550;18.526;2023-03-31T09:07:05;5.05;;;1.85;;
66487;SDS011;53304;54.550;18.526;2023-03-31T09:12:19;4.15;;;1.63;;
66487;SDS011;53304;54.550;18.526;2023-03-31T09:17:25;4.82;;;1.60;;
66487;SDS011;53304;54.550;18.526;2023-03-31T09:19:55;2.63;;;1.63;;
66487;SDS011;53304;54.550;18.526;2023-03-31T09:22:30;3.45;;;1.42;;
66487;SDS011;53304;54.550;18.526;2023-03-31T09:27:47;2.10;;;1.50;;
66487;SDS011;53304;54.550;18.526;2023-03-31T09:30:20;3.33;;;1.60;;
66487;SDS011;53304;54.550;18.526;2023-03-31T09:32:52;2.83;;;1.50;;
66487;SDS011;53304;54.550;18.526;2023-03-31T09:35:24;2.70;;;1.35;;
66487;SDS011;53304;54.550;18.526;2023-03-31T09:37:51;8.70;;;1.70;;
66487;SDS011;53304;54.550;18.526;2023-03-31T09:40:22;2.47;;;1.45;;
66487;SDS011;53304;54.550;18.526;2023-03-31T09:43:02;3.17;;;1.20;;
66487;SDS011;53304;54.550;18.526;2023-03-31T09:45:30;6.80;;;1.83;;
66487;SDS011;53304;54.550;18.526;2023-03-31T09:47:59;3.75;;;1.33;;
66487;SDS011;53304;54.550;18.526;2023-03-31T09:50:27;11.57;;;2.08;;
66487;SDS011;53304;54.550;18.526;2023-03-31T09:52:57;7.53;;;1.58;;
66487;SDS011;53304;54.550;18.526;2023-03-31T09:55:26;5.10;;;1.63;;
66487;SDS011;53304;54.550;18.526;2023-03-31T09:57:58;2.78;;;1.20;;
66487;SDS011;53304;54.550;18.526;2023-03-31T10:00:28;12.60;;;1.63;;
66487;SDS011;53304;54.550;18.526;2023-03-31T10:02:56;4.47;;;1.50;;
66487;SDS011;53304;54.550;18.526;2023-03-31T10:08:13;3.40;;;1.40;;
66487;SDS011;53304;54.550;18.526;2023-03-31T10:10:44;3.58;;;1.45;;
66487;SDS011;53304;54.550;18.526;2023-03-31T10:13:22;2.50;;;1.35;;
66487;SDS011;53304;54.550;18.526;2023-03-31T10:15:53;4.63;;;1.23;;
66487;SDS011;53304;54.550;18.526;2023-03-31T10:18:20;2.88;;;1.50;;
66487;SDS011;53304;54.550;18.526;2023-03-31T10:20:49;4.93;;;1.40;;
66487;SDS011;53304;54.550;18.526;2023-03-31T10:23:23;2.53;;;1.27;;
66487;SDS011;53304;54.550;18.526;2023-03-31T10:25:56;9.55;;;1.77;;
66487;SDS011;53304;54.550;18.526;2023-03-31T10:28:22;2.47;;;1.45;;
66487;SDS011;53304;54.550;18.526;2023-03-31T10:30:55;4.32;;;1.30;;
66487;SDS011;53304;54.550;18.526;2023-03-31T10:33:25;3.00;;;1.30;;
66487;SDS011;53304;54.550;18.526;2023-03-31T10:35:56;3.72;;;1.25;;
66487;SDS011;53304;54.550;18.526;2023-03-31T10:38:28;4.75;;;1.50;;
66487;SDS011;53304;54.550;18.526;2023-03-31T10:40:59;3.17;;;1.20;;
66487;SDS011;53304;54.550;18.526;2023-03-31T10:43:46;4.18;;;1.52;;
66487;SDS011;53304;54.550;18.526;2023-03-31T10:46:13;2.58;;;1.40;;
66487;SDS011;53304;54.550;18.526;2023-03-31T10:48:41;3.30;;;1.10;;
66487;SDS011;53304;54.550;18.526;2023-03-31T11:01:52;21.30;;;3.35;;
66487;SDS011;53304;54.550;18.526;2023-03-31T11:09:53;10.35;;;1.50;;
66487;SDS011;53304;54.550;18.526;2023-03-31T11:17:52;11.40;;;1.50;;
66487;SDS011;53304;54.550;18.526;2023-03-31T11:30:50;2.35;;;1.30;;
66487;SDS011;53304;54.550;18.526;2023-03-31T11:33:32;7.22;;;1.42;;
66487;SDS011;53304;54.550;18.526;2023-03-31T11:39:17;4.03;;;1.45;;
66487;SDS011;53304;54.550;18.526;2023-03-31T11:41:57;2.80;;;1.35;;
66487;SDS011;53304;54.550;18.526;2023-03-31T11:44:26;3.75;;;1.50;;
66487;SDS011;53304;54.550;18.526;2023-03-31T11:47:00;2.30;;;1.10;;
66487;SDS011;53304;54.550;18.526;2023-03-31T11:50:08;4.53;;;1.30;;
66487;SDS011;53304;54.550;18.526;2023-03-31T11:52:29;2.67;;;1.20;;
66487;SDS011;53304;54.550;18.526;2023-03-31T11:55:02;3.92;;;1.60;;
66487;SDS011;53304;54.550;18.526;2023-03-31T11:59:57;1.70;;;1.20;;
66487;SDS011;53304;54.550;18.526;2023-03-31T12:05:01;3.25;;;1.27;;
66487;SDS011;53304;54.550;18.526;2023-03-31T12:07:33;3.70;;;1.30;;
66487;SDS011;53304;54.550;18.526;2023-03-31T12:10:22;2.95;;;1.35;;
66487;SDS011;53304;54.550;18.526;2023-03-31T12:15:38;2.60;;;1.30;;
66487;SDS011;53304;54.550;18.526;2023-03-31T12:18:16;2.43;;;1.20;;
66487;SDS011;53304;54.550;18.526;2023-03-31T12:20:49;3.38;;;1.25;;
66487;SDS011;53304;54.550;18.526;2023-03-31T12:23:17;2.47;;;1.50;;
66487;SDS011;53304;54.550;18.526;2023-03-31T12:25:51;2.63;;;1.40;;
66487;SDS011;53304;54.550;18.526;2023-03-31T12:28:19;3.38;;;1.13;;
66487;SDS011;53304;54.550;18.526;2023-03-31T12:30:46;6.03;;;1.70;;
66487;SDS011;53304;54.550;18.526;2023-03-31T12:33:17;10.40;;;2.00;;
66487;SDS011;53304;54.550;18.526;2023-03-31T12:35:51;3.22;;;1.30;;
66487;SDS011;53304;54.550;18.526;2023-03-31T12:46:57;3.83;;;1.50;;
66487;SDS011;53304;54.550;18.526;2023-03-31T12:55:25;5.75;;;1.60;;
66487;SDS011;53304;54.550;18.526;2023-03-31T13:08:58;3.00;;;1.50;;
66487;SDS011;53304;54.550;18.526;2023-03-31T13:16:39;4.28;;;1.50;;
66487;SDS011;53304;54.550;18.526;2023-03-31T13:19:04;6.75;;;1.85;;
66487;SDS011;53304;54.550;18.526;2023-03-31T13:21:30;3.70;;;1.23;;
66487;SDS011;53304;54.550;18.526;2023-03-31T13:23:59;4.18;;;1.55;;
66487;SDS011;53304;54.550;18.526;2023-03-31T13:34:35;6.07;;;1.60;;
66487;SDS011;53304;54.550;18.526;2023-03-31T13:51:45;3.55;;;1.48;;
66487;SDS011;53304;54.550;18.526;2023-03-31T13:56:49;3.80;;;1.60;;
66487;SDS011;53304;54.550;18.526;2023-03-31T14:06:49;3.97;;;1.58;;
66487;SDS011;53304;54.550;18.526;2023-03-31T14:09:39;3.05;;;1.42;;
66487;SDS011;53304;54.550;18.526;2023-03-31T14:14:56;3.25;;;1.60;;
66487;SDS011;53304;54.550;18.526;2023-03-31T14:17:23;3.53;;;1.70;;
66487;SDS011;53304;54.550;18.526;2023-03-31T14:20:34;3.00;;;1.40;;
66487;SDS011;53304;54.550;18.526;2023-03-31T14:23:39;5.72;;;2.20;;
66487;SDS011;53304;54.550;18.526;2023-03-31T14:39:24;6.40;;;2.00;;
66487;SDS011;53304;54.550;18.526;2023-03-31T14:41:58;4.47;;;1.90;;
66487;SDS011;53304;54.550;18.526;2023-03-31T14:44:26;4.60;;;2.03;;
66487;SDS011;53304;54.550;18.526;2023-03-31T14:46:55;5.25;;;2.08;;
66487;SDS011;53304;54.550;18.526;2023-03-31T14:49:29;3.65;;;1.80;;
66487;SDS011;53304;54.550;18.526;2023-03-31T14:52:03;4.85;;;1.83;;
66487;SDS011;53304;54.550;18.526;2023-03-31T14:54:46;4.15;;;1.80;;
66487;SDS011;53304;54.550;18.526;2023-03-31T14:57:22;4.32;;;1.85;;
66487;SDS011;53304;54.550;18.526;2023-03-31T14:59:54;6.13;;;1.90;;
66487;SDS011;53304;54.550;18.526;2023-03-31T15:02:28;5.90;;;1.90;;
66487;SDS011;53304;54.550;18.526;2023-03-31T15:05:00;5.38;;;1.95;;
66487;SDS011;53304;54.550;18.526;2023-03-31T15:07:30;4.90;;;2.10;;
66487;SDS011;53304;54.550;18.526;2023-03-31T15:09:55;4.63;;;2.05;;
66487;SDS011;53304;54.550;18.526;2023-03-31T15:12:21;6.40;;;2.40;;
66487;SDS011;53304;54.550;18.526;2023-03-31T15:14:50;4.57;;;2.00;;
66487;SDS011;53304;54.550;18.526;2023-03-31T15:17:21;4.35;;;2.22;;
66487;SDS011;53304;54.550;18.526;2023-03-31T15:19:51;4.43;;;2.17;;
66487;SDS011;53304;54.550;18.526;2023-03-31T15:22:22;4.85;;;2.40;;
66487;SDS011;53304;54.550;18.526;2023-03-31T15:24:50;3.00;;;1.80;;
66487;SDS011;53304;54.550;18.526;2023-03-31T15:27:39;4.63;;;2.08;;
66487;SDS011;53304;54.550;18.526;2023-03-31T15:30:20;4.95;;;2.45;;
66487;SDS011;53304;54.550;18.526;2023-03-31T15:32:47;12.43;;;3.08;;
66487;SDS011;53304;54.550;18.526;2023-03-31T15:35:22;9.20;;;2.60;;
66487;SDS011;53304;54.550;18.526;2023-03-31T15:37:53;11.02;;;3.00;;
66487;SDS011;53304;54.550;18.526;2023-03-31T15:40:22;8.75;;;2.67;;
66487;SDS011;53304;54.550;18.526;2023-03-31T15:43:07;5.30;;;2.23;;
66487;SDS011;53304;54.550;18.526;2023-03-31T15:50:49;5.30;;;2.38;;
66487;SDS011;53304;54.550;18.526;2023-03-31T15:53:29;7.10;;;2.72;;
66487;SDS011;53304;54.550;18.526;2023-03-31T15:55:57;7.63;;;3.22;;
66487;SDS011;53304;54.550;18.526;2023-03-31T15:58:45;8.05;;;3.08;;
66487;SDS011;53304;54.550;18.526;2023-03-31T16:01:18;6.75;;;2.90;;
66487;SDS011;53304;54.550;18.526;2023-03-31T16:03:51;6.47;;;3.10;;
66487;SDS011;53304;54.550;18.526;2023-03-31T16:06:22;6.72;;;3.15;;
66487;SDS011;53304;54.550;18.526;2023-03-31T16:08:55;7.23;;;3.30;;
66487;SDS011;53304;54.550;18.526;2023-03-31T16:11:55;8.93;;;3.28;;
66487;SDS011;53304;54.550;18.526;2023-03-31T16:14:28;6.68;;;2.80;;
66487;SDS011;53304;54.550;18.526;2023-03-31T16:17:04;6.72;;;3.35;;
66487;SDS011;53304;54.550;18.526;2023-03-31T16:19:41;6.70;;;3.20;;
66487;SDS011;53304;54.550;18.526;2023-03-31T16:22:16;7.32;;;3.25;;
66487;SDS011;53304;54.550;18.526;2023-03-31T16:24:44;8.45;;;3.30;;
66487;SDS011;53304;54.550;18.526;2023-03-31T16:27:13;7.22;;;3.20;;
66487;SDS011;53304;54.550;18.526;2023-03-31T16:29:41;7.32;;;3.30;;
66487;SDS011;53304;54.550;18.526;2023-03-31T16:34:52;8.40;;;3.53;;
66487;SDS011;53304;54.550;18.526;2023-03-31T16:37:24;19.52;;;4.72;;
66487;SDS011;53304;54.550;18.526;2023-03-31T16:39:53;9.02;;;4.38;;
66487;SDS011;53304;54.550;18.526;2023-03-31T16:42:22;12.57;;;4.05;;
66487;SDS011;53304;54.550;18.526;2023-03-31T16:44:47;16.15;;;4.13;;
66487;SDS011;53304;54.550;18.526;2023-03-31T16:47:13;12.25;;;3.88;;
66487;SDS011;53304;54.550;18.526;2023-03-31T16:49:39;9.15;;;3.70;;
66487;SDS011;53304;54.550;18.526;2023-03-31T16:52:07;12.48;;;3.97;;
66487;SDS011;53304;54.550;18.526;2023-03-31T16:54:36;11.77;;;3.87;;
66487;SDS011;53304;54.550;18.526;2023-03-31T16:57:01;14.00;;;4.10;;
66487;SDS011;53304;54.550;18.526;2023-03-31T16:59:31;9.70;;;3.47;;
66487;SDS011;53304;54.550;18.526;2023-03-31T17:02:00;10.05;;;3.50;;
66487;SDS011;53304;54.550;18.526;2023-03-31T17:04:27;7.97;;;3.72;;
66487;SDS011;53304;54.550;18.526;2023-03-31T17:06:53;10.63;;;4.60;;
66487;SDS011;53304;54.550;18.526;2023-03-31T17:09:19;6.65;;;3.80;;
66487;SDS011;53304;54.550;18.526;2023-03-31T17:11:44;8.38;;;4.13;;
66487;SDS011;53304;54.550;18.526;2023-03-31T17:14:12;8.90;;;3.80;;
66487;SDS011;53304;54.550;18.526;2023-03-31T17:16:38;8.82;;;3.72;;
66487;SDS011;53304;54.550;18.526;2023-03-31T17:19:03;6.97;;;3.40;;
66487;SDS011;53304;54.550;18.526;2023-03-31T17:21:29;9.27;;;3.80;;
66487;SDS011;53304;54.550;18.526;2023-03-31T17:23:57;6.80;;;3.30;;
66487;SDS011;53304;54.550;18.526;2023-03-31T17:26:25;9.63;;;3.95;;
66487;SDS011;53304;54.550;18.526;2023-03-31T17:28:51;7.03;;;3.72;;
66487;SDS011;53304;54.550;18.526;2023-03-31T17:31:17;9.38;;;3.90;;
66487;SDS011;53304;54.550;18.526;2023-03-31T17:33:43;6.45;;;3.35;;
66487;SDS011;53304;54.550;18.526;2023-03-31T17:36:11;5.65;;;3.33;;
66487;SDS011;53304;54.550;18.526;2023-03-31T17:38:39;6.22;;;3.25;;
66487;SDS011;53304;54.550;18.526;2023-03-31T17:41:07;7.38;;;3.53;;
66487;SDS011;53304;54.550;18.526;2023-03-31T17:43:33;9.82;;;3.40;;
66487;SDS011;53304;54.550;18.526;2023-03-31T17:46:06;9.95;;;3.72;;
66487;SDS011;53304;54.550;18.526;2023-03-31T17:48:34;11.80;;;3.70;;
66487;SDS011;53304;54.550;18.526;2023-03-31T17:51:04;7.55;;;3.13;;
66487;SDS011;53304;54.550;18.526;2023-03-31T17:53:37;7.95;;;3.00;;
66487;SDS011;53304;54.550;18.526;2023-03-31T17:56:08;20.77;;;3.95;;
66487;SDS011;53304;54.550;18.526;2023-03-31T17:58:34;17.13;;;4.20;;
66487;SDS011;53304;54.550;18.526;2023-03-31T18:01:05;11.27;;;3.53;;
66487;SDS011;53304;54.550;18.526;2023-03-31T18:03:32;11.93;;;3.30;;
66487;SDS011;53304;54.550;18.526;2023-03-31T18:06:02;17.60;;;3.45;;